Terminal Aerodrome Forecast
Issued by NWS

Home | Current Version | Previous Version | Text Only | Print | Product List | Glossary On
Versions: 1 2 3 4 5 6 7 8 9 10 11 12 13 14 15 16 17 18 19 20
000
FTUS46 KSGX 192300
TAFCRQ
TAF
KCRQ 192320Z 2000/2024 28006KT P6SM SCT014
     FM200200 VRB04KT P6SM SCT012
     FM200800 VRB04KT 5SM BR BKN008
     FM201700 VRB04KT P6SM SCT010
     FM202000 27008KT P6SM SCT080=

USA.gov is the U.S. government's official web portal to all federal, state and local government web resources and services.